FKYS

Details ICAO FKYS (NSI)
Name YAOUNDE NSIMALEN
Region Cameroon
Timezone Africa/Douala (UTC+1.0)
Plans Departing 67
Arriving 73
Stats Elevation 2,278 ft / 694 m (AMSL)
Location 3.722554° 11.553270°
Runways 1
Magnetic Variation 0.639° W
Sunrise 2018-05-21 05:02:46 UTC / 2018-05-21 06:02:46 Local
Sunset 2018-05-21 17:20:50 UTC / 2018-05-21 18:20:50 Local
Advertisement - Login to hide

Runways

ID Width Length Bearing (true) Bearing (mag) Surface Threshold Offset Overrun Length
01 148 ft / 45 m 11,220 ft / 3,420 m 9.87° 10.51° Asphalt 0 ft / 0 m 200 ft / 61 m
19 148 ft / 45 m 11,220 ft / 3,420 m 189.87° 190.51° Asphalt 0 ft / 0 m 200 ft / 61 m

Map

Weather


0- 5 10 15 20 25 30 35+ Temperature / ° C

Clouds and Precipitation
Forecast for 2018-05-21 12:00 UTC. Updated 14 minutes ago

Ground ~20,000 ft ~40,000 ft Winds

METAR

FKYS 210900Z /////KT 8000 R19/1200V1400N BKN011 25/21 Q1018 BECMG BKN010

TAF

TAF FKYS 210500Z 2106/2206 VRB03KT 8000 SCT002 BKN006 TEMPO 2106/2107 0800 FG BECMG 2106/2108 BKN016

Frequencies

Tower 119.10 MHz TWR
Approach 121.30 MHz APP
Warning: Do not use this data for real-world aviation or navigation. No guarantee of current accuracy is given.